sensor_id;sensor_type;location;lat;lon;timestamp;temperature;humidity
51878;SHT31;37911;51.526;11.536;2024-01-06T00:00:25;3.34;90.38
51878;SHT31;37911;51.526;11.536;2024-01-06T00:03:28;3.40;90.30
51878;SHT31;37911;51.526;11.536;2024-01-06T00:06:31;3.38;90.23
51878;SHT31;37911;51.526;11.536;2024-01-06T00:09:35;3.35;90.32
51878;SHT31;37911;51.526;11.536;2024-01-06T00:12:40;3.39;90.32
51878;SHT31;37911;51.526;11.536;2024-01-06T00:15:44;3.45;90.30
51878;SHT31;37911;51.526;11.536;2024-01-06T00:18:47;3.49;90.44
51878;SHT31;37911;51.526;11.536;2024-01-06T00:21:51;3.48;90.30
51878;SHT31;37911;51.526;11.536;2024-01-06T00:24:54;3.49;90.27
51878;SHT31;37911;51.526;11.536;2024-01-06T00:28:00;3.42;90.26
51878;SHT31;37911;51.526;11.536;2024-01-06T00:31:04;3.39;90.36
51878;SHT31;37911;51.526;11.536;2024-01-06T00:34:08;3.40;90.36
51878;SHT31;37911;51.526;11.536;2024-01-06T00:37:11;3.39;90.34
51878;SHT31;37911;51.526;11.536;2024-01-06T00:40:14;3.42;90.44
51878;SHT31;37911;51.526;11.536;2024-01-06T00:43:21;3.48;90.42
51878;SHT31;37911;51.526;11.536;2024-01-06T00:46:25;3.51;90.45
51878;SHT31;37911;51.526;11.536;2024-01-06T00:49:28;3.58;90.31
51878;SHT31;37911;51.526;11.536;2024-01-06T00:52:31;3.70;90.11
51878;SHT31;37911;51.526;11.536;2024-01-06T00:55:35;3.87;89.73
51878;SHT31;37911;51.526;11.536;2024-01-06T00:58:40;4.01;89.21
51878;SHT31;37911;51.526;11.536;2024-01-06T01:01:44;4.10;88.93
51878;SHT31;37911;51.526;11.536;2024-01-06T01:04:47;4.21;88.60
51878;SHT31;37911;51.526;11.536;2024-01-06T01:07:50;4.22;88.53
51878;SHT31;37911;51.526;11.536;2024-01-06T01:10:54;4.24;88.47
51878;SHT31;37911;51.526;11.536;2024-01-06T01:14:00;4.18;88.64
51878;SHT31;37911;51.526;11.536;2024-01-06T01:17:03;4.25;88.26
51878;SHT31;37911;51.526;11.536;2024-01-06T01:20:08;4.36;87.74
51878;SHT31;37911;51.526;11.536;2024-01-06T01:23:11;4.34;87.47
51878;SHT31;37911;51.526;11.536;2024-01-06T01:26:14;4.27;87.68
51878;SHT31;37911;51.526;11.536;2024-01-06T01:29:20;4.16;87.84
51878;SHT31;37911;51.526;11.536;2024-01-06T01:32:23;4.03;88.05
51878;SHT31;37911;51.526;11.536;2024-01-06T01:35:27;3.94;88.30
51878;SHT31;37911;51.526;11.536;2024-01-06T01:38:30;3.82;88.51
51878;SHT31;37911;51.526;11.536;2024-01-06T01:41:33;3.76;88.82
51878;SHT31;37911;51.526;11.536;2024-01-06T01:44:39;3.67;89.06
51878;SHT31;37911;51.526;11.536;2024-01-06T01:47:43;3.72;89.14
51878;SHT31;37911;51.526;11.536;2024-01-06T01:50:46;3.76;89.09
51878;SHT31;37911;51.526;11.536;2024-01-06T01:53:50;3.89;88.81
51878;SHT31;37911;51.526;11.536;2024-01-06T01:56:53;3.89;88.60
51878;SHT31;37911;51.526;11.536;2024-01-06T02:00:03;3.90;88.56
51878;SHT31;37911;51.526;11.536;2024-01-06T02:03:13;3.87;88.63
51878;SHT31;37911;51.526;11.536;2024-01-06T02:06:16;3.82;88.65
51878;SHT31;37911;51.526;11.536;2024-01-06T02:09:19;3.82;88.97
51878;SHT31;37911;51.526;11.536;2024-01-06T02:12:27;3.80;89.18
51878;SHT31;37911;51.526;11.536;2024-01-06T02:15:33;3.77;89.33
51878;SHT31;37911;51.526;11.536;2024-01-06T02:18:36;3.75;89.48
51878;SHT31;37911;51.526;11.536;2024-01-06T02:21:41;3.77;89.58
51878;SHT31;37911;51.526;11.536;2024-01-06T02:24:47;3.76;89.60
51878;SHT31;37911;51.526;11.536;2024-01-06T02:27:51;3.73;89.70
51878;SHT31;37911;51.526;11.536;2024-01-06T02:30:54;3.76;89.65
51878;SHT31;37911;51.526;11.536;2024-01-06T02:33:57;3.75;89.77
51878;SHT31;37911;51.526;11.536;2024-01-06T02:37:01;3.70;89.93
51878;SHT31;37911;51.526;11.536;2024-01-06T02:40:09;3.73;89.87
51878;SHT31;37911;51.526;11.536;2024-01-06T02:43:13;3.72;89.94
51878;SHT31;37911;51.526;11.536;2024-01-06T02:46:16;3.66;90.06
51878;SHT31;37911;51.526;11.536;2024-01-06T02:49:19;3.58;90.10
51878;SHT31;37911;51.526;11.536;2024-01-06T02:52:22;3.52;90.09
51878;SHT31;37911;51.526;11.536;2024-01-06T02:55:28;3.35;90.36
51878;SHT31;37911;51.526;11.536;2024-01-06T02:58:32;3.39;90.33
51878;SHT31;37911;51.526;11.536;2024-01-06T03:01:35;3.43;90.41
51878;SHT31;37911;51.526;11.536;2024-01-06T03:04:39;3.40;90.47
51878;SHT31;37911;51.526;11.536;2024-01-06T03:07:42;3.40;90.63
51878;SHT31;37911;51.526;11.536;2024-01-06T03:10:48;3.35;90.55
51878;SHT31;37911;51.526;11.536;2024-01-06T03:13:51;3.32;90.52
51878;SHT31;37911;51.526;11.536;2024-01-06T03:16:55;3.22;90.53
51878;SHT31;37911;51.526;11.536;2024-01-06T03:19:59;3.19;90.56
51878;SHT31;37911;51.526;11.536;2024-01-06T03:23:04;3.12;90.55
51878;SHT31;37911;51.526;11.536;2024-01-06T03:26:10;3.04;90.75
51878;SHT31;37911;51.526;11.536;2024-01-06T03:29:13;3.00;90.79
51878;SHT31;37911;51.526;11.536;2024-01-06T03:32:17;2.97;90.84
51878;SHT31;37911;51.526;11.536;2024-01-06T03:35:20;2.88;90.95
51878;SHT31;37911;51.526;11.536;2024-01-06T03:38:23;2.92;90.78
51878;SHT31;37911;51.526;11.536;2024-01-06T03:41:29;2.87;90.84
51878;SHT31;37911;51.526;11.536;2024-01-06T03:44:33;2.80;90.66
51878;SHT31;37911;51.526;11.536;2024-01-06T03:47:36;2.68;90.57
51878;SHT31;37911;51.526;11.536;2024-01-06T03:50:39;2.54;91.02
51878;SHT31;37911;51.526;11.536;2024-01-06T03:53:43;2.56;91.12
51878;SHT31;37911;51.526;11.536;2024-01-06T03:56:49;2.43;91.25
51878;SHT31;37911;51.526;11.536;2024-01-06T03:59:52;2.25;91.65
51878;SHT31;37911;51.526;11.536;2024-01-06T04:02:56;2.22;91.85
51878;SHT31;37911;51.526;11.536;2024-01-06T04:05:59;2.20;91.76
51878;SHT31;37911;51.526;11.536;2024-01-06T04:09:02;2.20;91.78
51878;SHT31;37911;51.526;11.536;2024-01-06T04:12:09;2.09;91.90
51878;SHT31;37911;51.526;11.536;2024-01-06T04:15:12;2.05;92.15
51878;SHT31;37911;51.526;11.536;2024-01-06T04:18:16;2.02;91.94
51878;SHT31;37911;51.526;11.536;2024-01-06T04:21:20;2.02;92.04
51878;SHT31;37911;51.526;11.536;2024-01-06T04:24:23;2.06;91.90
51878;SHT31;37911;51.526;11.536;2024-01-06T04:27:29;2.03;91.97
51878;SHT31;37911;51.526;11.536;2024-01-06T04:30:34;2.03;92.00
51878;SHT31;37911;51.526;11.536;2024-01-06T04:33:37;2.03;91.98
51878;SHT31;37911;51.526;11.536;2024-01-06T04:36:41;2.06;92.03
51878;SHT31;37911;51.526;11.536;2024-01-06T04:39:44;2.12;91.81
51878;SHT31;37911;51.526;11.536;2024-01-06T04:42:50;2.16;91.76
51878;SHT31;37911;51.526;11.536;2024-01-06T04:45:53;2.19;91.74
51878;SHT31;37911;51.526;11.536;2024-01-06T04:48:57;2.30;91.48
51878;SHT31;37911;51.526;11.536;2024-01-06T04:52:01;2.27;91.56
51878;SHT31;37911;51.526;11.536;2024-01-06T04:55:04;2.39;91.42
51878;SHT31;37911;51.526;11.536;2024-01-06T04:58:11;2.47;91.05
51878;SHT31;37911;51.526;11.536;2024-01-06T05:01:14;2.40;91.15
51878;SHT31;37911;51.526;11.536;2024-01-06T05:04:17;2.43;91.00
51878;SHT31;37911;51.526;11.536;2024-01-06T05:07:21;2.40;90.99
51878;SHT31;37911;51.526;11.536;2024-01-06T05:10:24;2.33;90.98
51878;SHT31;37911;51.526;11.536;2024-01-06T05:13:30;2.34;91.06
51878;SHT31;37911;51.526;11.536;2024-01-06T05:16:33;2.33;91.22
51878;SHT31;37911;51.526;11.536;2024-01-06T05:19:37;2.27;91.14
51878;SHT31;37911;51.526;11.536;2024-01-06T05:22:40;2.30;91.09
51878;SHT31;37911;51.526;11.536;2024-01-06T05:25:43;2.34;90.98
51878;SHT31;37911;51.526;11.536;2024-01-06T05:28:49;2.33;91.25
51878;SHT31;37911;51.526;11.536;2024-01-06T05:31:52;2.36;91.21
51878;SHT31;37911;51.526;11.536;2024-01-06T05:34:56;2.36;91.17
51878;SHT31;37911;51.526;11.536;2024-01-06T05:38:00;2.37;91.16
51878;SHT31;37911;51.526;11.536;2024-01-06T05:41:04;2.40;91.16
51878;SHT31;37911;51.526;11.536;2024-01-06T05:44:10;2.40;91.06
51878;SHT31;37911;51.526;11.536;2024-01-06T05:47:13;2.50;91.01
51878;SHT31;37911;51.526;11.536;2024-01-06T05:50:17;2.39;91.24
51878;SHT31;37911;51.526;11.536;2024-01-06T05:53:20;2.50;91.12
51878;SHT31;37911;51.526;11.536;2024-01-06T05:56:24;2.41;91.40
51878;SHT31;37911;51.526;11.536;2024-01-06T05:59:32;2.39;91.32
51878;SHT31;37911;51.526;11.536;2024-01-06T06:02:35;2.37;91.43
51878;SHT31;37911;51.526;11.536;2024-01-06T06:05:39;2.41;91.44
51878;SHT31;37911;51.526;11.536;2024-01-06T06:08:43;2.49;91.49
51878;SHT31;37911;51.526;11.536;2024-01-06T06:11:48;2.50;91.52
51878;SHT31;37911;51.526;11.536;2024-01-06T06:14:54;2.53;91.61
51878;SHT31;37911;51.526;11.536;2024-01-06T06:17:58;2.64;91.56
51878;SHT31;37911;51.526;11.536;2024-01-06T06:21:03;2.65;91.41
51878;SHT31;37911;51.526;11.536;2024-01-06T06:24:06;2.67;91.48
51878;SHT31;37911;51.526;11.536;2024-01-06T06:27:10;2.81;91.34
51878;SHT31;37911;51.526;11.536;2024-01-06T06:30:16;2.80;91.40
51878;SHT31;37911;51.526;11.536;2024-01-06T06:33:19;2.83;91.46
51878;SHT31;37911;51.526;11.536;2024-01-06T06:36:22;2.87;91.49
51878;SHT31;37911;51.526;11.536;2024-01-06T06:39:26;2.88;91.49
51878;SHT31;37911;51.526;11.536;2024-01-06T06:42:31;2.87;91.56
51878;SHT31;37911;51.526;11.536;2024-01-06T06:45:37;2.90;91.51
51878;SHT31;37911;51.526;11.536;2024-01-06T06:48:40;2.92;91.59
51878;SHT31;37911;51.526;11.536;2024-01-06T06:51:44;2.94;91.62
51878;SHT31;37911;51.526;11.536;2024-01-06T06:54:48;2.94;91.68
51878;SHT31;37911;51.526;11.536;2024-01-06T06:57:53;2.98;91.63
51878;SHT31;37911;51.526;11.536;2024-01-06T07:00:59;3.00;91.59
51878;SHT31;37911;51.526;11.536;2024-01-06T07:04:02;3.04;91.65
51878;SHT31;37911;51.526;11.536;2024-01-06T07:07:06;2.98;91.77
51878;SHT31;37911;51.526;11.536;2024-01-06T07:10:09;3.01;91.88
51878;SHT31;37911;51.526;11.536;2024-01-06T07:13:13;3.09;91.90
51878;SHT31;37911;51.526;11.536;2024-01-06T07:16:19;3.14;91.86
51878;SHT31;37911;51.526;11.536;2024-01-06T07:19:22;3.15;91.89
51878;SHT31;37911;51.526;11.536;2024-01-06T07:22:25;3.21;91.79
51878;SHT31;37911;51.526;11.536;2024-01-06T07:25:29;3.19;91.85
51878;SHT31;37911;51.526;11.536;2024-01-06T07:28:33;3.21;91.89
51878;SHT31;37911;51.526;11.536;2024-01-06T07:31:39;3.21;91.80
51878;SHT31;37911;51.526;11.536;2024-01-06T07:34:42;3.19;91.90
51878;SHT31;37911;51.526;11.536;2024-01-06T07:37:46;3.25;91.89
51878;SHT31;37911;51.526;11.536;2024-01-06T07:40:50;3.25;91.89
51878;SHT31;37911;51.526;11.536;2024-01-06T07:43:54;3.31;91.83
51878;SHT31;37911;51.526;11.536;2024-01-06T07:47:00;3.40;91.74
51878;SHT31;37911;51.526;11.536;2024-01-06T07:50:06;3.34;91.76
51878;SHT31;37911;51.526;11.536;2024-01-06T07:53:10;3.31;91.86
51878;SHT31;37911;51.526;11.536;2024-01-06T07:56:14;3.26;91.90
51878;SHT31;37911;51.526;11.536;2024-01-06T07:59:17;3.31;91.95
51878;SHT31;37911;51.526;11.536;2024-01-06T08:02:23;3.34;91.99
51878;SHT31;37911;51.526;11.536;2024-01-06T08:05:26;3.38;92.01
51878;SHT31;37911;51.526;11.536;2024-01-06T08:08:30;3.43;91.95
51878;SHT31;37911;51.526;11.536;2024-01-06T08:11:33;3.46;91.99
51878;SHT31;37911;51.526;11.536;2024-01-06T08:14:36;3.48;91.96
51878;SHT31;37911;51.526;11.536;2024-01-06T08:17:42;3.48;91.99
51878;SHT31;37911;51.526;11.536;2024-01-06T08:20:47;3.49;92.07
51878;SHT31;37911;51.526;11.536;2024-01-06T08:23:50;3.58;91.97
51878;SHT31;37911;51.526;11.536;2024-01-06T08:26:54;3.59;91.96
51878;SHT31;37911;51.526;11.536;2024-01-06T08:29:57;3.60;92.07
51878;SHT31;37911;51.526;11.536;2024-01-06T08:33:04;3.56;92.04
51878;SHT31;37911;51.526;11.536;2024-01-06T08:36:07;3.51;92.31
51878;SHT31;37911;51.526;11.536;2024-01-06T08:39:11;3.56;92.35
51878;SHT31;37911;51.526;11.536;2024-01-06T08:42:14;3.54;92.34
51878;SHT31;37911;51.526;11.536;2024-01-06T08:45:17;3.55;92.37
51878;SHT31;37911;51.526;11.536;2024-01-06T08:48:24;3.55;92.22
51878;SHT31;37911;51.526;11.536;2024-01-06T08:51:27;3.59;92.06
51878;SHT31;37911;51.526;11.536;2024-01-06T08:54:31;3.65;91.99
51878;SHT31;37911;51.526;11.536;2024-01-06T08:57:35;3.67;91.90
51878;SHT31;37911;51.526;11.536;2024-01-06T09:00:38;3.65;91.84
51878;SHT31;37911;51.526;11.536;2024-01-06T09:03:44;3.75;91.66
51878;SHT31;37911;51.526;11.536;2024-01-06T09:06:48;3.80;91.60
51878;SHT31;37911;51.526;11.536;2024-01-06T09:09:51;3.90;91.55
51878;SHT31;37911;51.526;11.536;2024-01-06T09:12:55;3.96;91.28
51878;SHT31;37911;51.526;11.536;2024-01-06T09:15:59;3.94;91.22
51878;SHT31;37911;51.526;11.536;2024-01-06T09:19:05;4.01;91.23
51878;SHT31;37911;51.526;11.536;2024-01-06T09:22:08;4.04;91.41
51878;SHT31;37911;51.526;11.536;2024-01-06T09:25:11;4.03;91.44
51878;SHT31;37911;51.526;11.536;2024-01-06T09:28:15;4.06;91.38
51878;SHT31;37911;51.526;11.536;2024-01-06T09:31:19;4.11;91.31
51878;SHT31;37911;51.526;11.536;2024-01-06T09:34:24;4.22;91.07
51878;SHT31;37911;51.526;11.536;2024-01-06T09:37:28;4.31;91.07
51878;SHT31;37911;51.526;11.536;2024-01-06T09:40:31;4.31;91.23
51878;SHT31;37911;51.526;11.536;2024-01-06T09:43:35;4.38;91.63
51878;SHT31;37911;51.526;11.536;2024-01-06T09:46:39;4.42;91.63
51878;SHT31;37911;51.526;11.536;2024-01-06T09:49:49;4.60;91.61
51878;SHT31;37911;51.526;11.536;2024-01-06T09:52:53;4.78;91.36
51878;SHT31;37911;51.526;11.536;2024-01-06T09:56:05;4.93;91.27
51878;SHT31;37911;51.526;11.536;2024-01-06T09:59:08;5.08;91.03
51878;SHT31;37911;51.526;11.536;2024-01-06T10:02:14;5.16;90.80
51878;SHT31;37911;51.526;11.536;2024-01-06T10:05:21;5.23;90.68
51878;SHT31;37911;51.526;11.536;2024-01-06T10:08:25;5.30;90.58
51878;SHT31;37911;51.526;11.536;2024-01-06T10:11:29;5.35;90.90
51878;SHT31;37911;51.526;11.536;2024-01-06T10:14:32;5.32;90.87
51878;SHT31;37911;51.526;11.536;2024-01-06T10:17:37;5.46;91.05
51878;SHT31;37911;51.526;11.536;2024-01-06T10:20:44;5.58;90.99
51878;SHT31;37911;51.526;11.536;2024-01-06T10:23:48;5.67;90.81
51878;SHT31;37911;51.526;11.536;2024-01-06T10:26:51;5.84;90.31
51878;SHT31;37911;51.526;11.536;2024-01-06T10:29:54;5.87;90.23
51878;SHT31;37911;51.526;11.536;2024-01-06T10:32:58;5.94;89.81
51878;SHT31;37911;51.526;11.536;2024-01-06T10:36:04;5.70;89.47
51878;SHT31;37911;51.526;11.536;2024-01-06T10:39:09;5.58;89.47
51878;SHT31;37911;51.526;11.536;2024-01-06T10:42:16;5.56;89.36
51878;SHT31;37911;51.526;11.536;2024-01-06T10:45:19;5.53;89.44
51878;SHT31;37911;51.526;11.536;2024-01-06T10:48:24;5.61;89.22
51878;SHT31;37911;51.526;11.536;2024-01-06T10:51:31;5.57;89.22
51878;SHT31;37911;51.526;11.536;2024-01-06T10:54:35;5.53;89.47
51878;SHT31;37911;51.526;11.536;2024-01-06T10:57:40;5.37;89.49
51878;SHT31;37911;51.526;11.536;2024-01-06T11:00:46;5.27;89.46
51878;SHT31;37911;51.526;11.536;2024-01-06T11:03:50;5.27;89.29
51878;SHT31;37911;51.526;11.536;2024-01-06T11:06:57;5.39;89.30
51878;SHT31;37911;51.526;11.536;2024-01-06T11:10:05;5.29;89.12
51878;SHT31;37911;51.526;11.536;2024-01-06T11:13:11;5.19;88.99
51878;SHT31;37911;51.526;11.536;2024-01-06T11:16:35;5.05;89.57
51878;SHT31;37911;51.526;11.536;2024-01-06T11:19:43;4.93;89.73
51878;SHT31;37911;51.526;11.536;2024-01-06T11:22:50;4.92;90.03
51878;SHT31;37911;51.526;11.536;2024-01-06T11:25:53;4.71;90.16
51878;SHT31;37911;51.526;11.536;2024-01-06T11:28:57;4.65;90.39
51878;SHT31;37911;51.526;11.536;2024-01-06T11:32:17;4.67;90.46
51878;SHT31;37911;51.526;11.536;2024-01-06T11:35:22;4.60;90.46
51878;SHT31;37911;51.526;11.536;2024-01-06T11:38:28;4.51;90.33
51878;SHT31;37911;51.526;11.536;2024-01-06T11:41:49;4.62;90.02
51878;SHT31;37911;51.526;11.536;2024-01-06T11:44:52;4.61;89.94
51878;SHT31;37911;51.526;11.536;2024-01-06T11:47:57;4.54;89.93
51878;SHT31;37911;51.526;11.536;2024-01-06T11:51:03;4.48;90.07
51878;SHT31;37911;51.526;11.536;2024-01-06T11:54:10;4.22;90.41
51878;SHT31;37911;51.526;11.536;2024-01-06T11:57:14;4.18;90.36
51878;SHT31;37911;51.526;11.536;2024-01-06T12:00:18;4.13;90.37
51878;SHT31;37911;51.526;11.536;2024-01-06T12:03:21;4.11;90.52
51878;SHT31;37911;51.526;11.536;2024-01-06T12:06:24;4.09;90.36
51878;SHT31;37911;51.526;11.536;2024-01-06T12:09:30;4.00;90.23
51878;SHT31;37911;51.526;11.536;2024-01-06T12:12:33;4.03;90.52
51878;SHT31;37911;51.526;11.536;2024-01-06T12:15:37;4.01;90.64
51878;SHT31;37911;51.526;11.536;2024-01-06T12:18:40;4.03;90.34
51878;SHT31;37911;51.526;11.536;2024-01-06T12:21:44;3.93;90.39
51878;SHT31;37911;51.526;11.536;2024-01-06T12:24:51;3.86;90.39
51878;SHT31;37911;51.526;11.536;2024-01-06T12:27:55;3.89;90.45
51878;SHT31;37911;51.526;11.536;2024-01-06T12:30:58;3.94;90.57
51878;SHT31;37911;51.526;11.536;2024-01-06T12:34:01;3.94;90.63
51878;SHT31;37911;51.526;11.536;2024-01-06T12:37:05;3.85;90.35
51878;SHT31;37911;51.526;11.536;2024-01-06T12:40:13;3.86;90.43
51878;SHT31;37911;51.526;11.536;2024-01-06T12:43:17;3.90;90.51
51878;SHT31;37911;51.526;11.536;2024-01-06T12:46:20;3.85;90.63
51878;SHT31;37911;51.526;11.536;2024-01-06T12:49:24;3.76;90.67
51878;SHT31;37911;51.526;11.536;2024-01-06T12:52:27;3.76;90.77
51878;SHT31;37911;51.526;11.536;2024-01-06T12:55:33;3.72;90.63
51878;SHT31;37911;51.526;11.536;2024-01-06T12:58:37;3.72;90.70
51878;SHT31;37911;51.526;11.536;2024-01-06T13:01:40;3.65;90.68
51878;SHT31;37911;51.526;11.536;2024-01-06T13:04:43;3.60;91.00
51878;SHT31;37911;51.526;11.536;2024-01-06T13:07:47;3.51;91.28
51878;SHT31;37911;51.526;11.536;2024-01-06T13:10:53;3.51;91.60
51878;SHT31;37911;51.526;11.536;2024-01-06T13:13:56;3.51;91.29
51878;SHT31;37911;51.526;11.536;2024-01-06T13:17:00;3.43;91.39
51878;SHT31;37911;51.526;11.536;2024-01-06T13:20:05;3.35;91.54
51878;SHT31;37911;51.526;11.536;2024-01-06T13:23:08;3.38;91.70
51878;SHT31;37911;51.526;11.536;2024-01-06T13:26:14;3.45;91.87
51878;SHT31;37911;51.526;11.536;2024-01-06T13:29:18;3.43;91.77
51878;SHT31;37911;51.526;11.536;2024-01-06T13:32:22;3.38;91.94
51878;SHT31;37911;51.526;11.536;2024-01-06T13:35:27;3.39;91.91
51878;SHT31;37911;51.526;11.536;2024-01-06T13:38:31;3.34;92.11
51878;SHT31;37911;51.526;11.536;2024-01-06T13:41:37;3.35;92.13
51878;SHT31;37911;51.526;11.536;2024-01-06T13:44:40;3.26;92.39
51878;SHT31;37911;51.526;11.536;2024-01-06T13:47:44;3.26;92.22
51878;SHT31;37911;51.526;11.536;2024-01-06T13:50:48;3.22;92.26
51878;SHT31;37911;51.526;11.536;2024-01-06T13:53:51;3.16;92.45
51878;SHT31;37911;51.526;11.536;2024-01-06T13:56:57;3.16;92.72
51878;SHT31;37911;51.526;11.536;2024-01-06T14:00:01;3.16;92.75
51878;SHT31;37911;51.526;11.536;2024-01-06T14:03:12;3.14;92.85
51878;SHT31;37911;51.526;11.536;2024-01-06T14:06:15;3.18;92.91
51878;SHT31;37911;51.526;11.536;2024-01-06T14:09:20;3.24;92.85
51878;SHT31;37911;51.526;11.536;2024-01-06T14:12:26;3.24;92.73
51878;SHT31;37911;51.526;11.536;2024-01-06T14:15:30;3.19;92.72
51878;SHT31;37911;51.526;11.536;2024-01-06T14:18:33;3.18;92.71
51878;SHT31;37911;51.526;11.536;2024-01-06T14:21:37;3.16;92.66
51878;SHT31;37911;51.526;11.536;2024-01-06T14:24:40;3.18;92.82
51878;SHT31;37911;51.526;11.536;2024-01-06T14:27:46;3.16;92.81
51878;SHT31;37911;51.526;11.536;2024-01-06T14:30:50;3.09;92.84
51878;SHT31;37911;51.526;11.536;2024-01-06T14:33:53;3.04;92.98
51878;SHT31;37911;51.526;11.536;2024-01-06T14:36:57;3.04;93.02
51878;SHT31;37911;51.526;11.536;2024-01-06T14:40:00;3.04;92.98
51878;SHT31;37911;51.526;11.536;2024-01-06T14:43:09;3.00;93.14
51878;SHT31;37911;51.526;11.536;2024-01-06T14:46:12;2.97;93.44
51878;SHT31;37911;51.526;11.536;2024-01-06T14:49:15;2.95;93.41
51878;SHT31;37911;51.526;11.536;2024-01-06T14:52:19;2.91;93.65
51878;SHT31;37911;51.526;11.536;2024-01-06T14:55:23;2.95;93.70
51878;SHT31;37911;51.526;11.536;2024-01-06T14:58:29;2.95;93.78
51878;SHT31;37911;51.526;11.536;2024-01-06T15:01:32;2.94;93.98
51878;SHT31;37911;51.526;11.536;2024-01-06T15:04:37;2.95;94.12
51878;SHT31;37911;51.526;11.536;2024-01-06T15:07:40;2.92;94.26
51878;SHT31;37911;51.526;11.536;2024-01-06T15:10:43;2.91;94.44
51878;SHT31;37911;51.526;11.536;2024-01-06T15:13:49;2.95;94.57
51878;SHT31;37911;51.526;11.536;2024-01-06T15:16:52;2.98;94.77
51878;SHT31;37911;51.526;11.536;2024-01-06T15:19:56;2.95;94.85
51878;SHT31;37911;51.526;11.536;2024-01-06T15:22:59;2.87;95.05
51878;SHT31;37911;51.526;11.536;2024-01-06T15:26:03;2.88;95.14
51878;SHT31;37911;51.526;11.536;2024-01-06T15:29:09;2.85;95.26
51878;SHT31;37911;51.526;11.536;2024-01-06T15:32:13;2.92;95.07
51878;SHT31;37911;51.526;11.536;2024-01-06T15:35:16;2.81;95.33
51878;SHT31;37911;51.526;11.536;2024-01-06T15:38:19;2.81;95.42
51878;SHT31;37911;51.526;11.536;2024-01-06T15:41:23;2.83;95.40
51878;SHT31;37911;51.526;11.536;2024-01-06T15:44:29;2.76;95.70
51878;SHT31;37911;51.526;11.536;2024-01-06T15:47:33;2.79;95.68
51878;SHT31;37911;51.526;11.536;2024-01-06T15:50:37;2.76;95.73
51878;SHT31;37911;51.526;11.536;2024-01-06T15:53:40;2.79;95.72
51878;SHT31;37911;51.526;11.536;2024-01-06T15:56:43;2.73;95.75
51878;SHT31;37911;51.526;11.536;2024-01-06T15:59:49;2.71;95.68
51878;SHT31;37911;51.526;11.536;2024-01-06T16:02:53;2.68;95.73
51878;SHT31;37911;51.526;11.536;2024-01-06T16:05:56;2.68;95.75
51878;SHT31;37911;51.526;11.536;2024-01-06T16:09:00;2.64;95.88
51878;SHT31;37911;51.526;11.536;2024-01-06T16:12:06;2.68;95.76
51878;SHT31;37911;51.526;11.536;2024-01-06T16:15:13;2.57;95.80
51878;SHT31;37911;51.526;11.536;2024-01-06T16:18:16;2.57;95.93
51878;SHT31;37911;51.526;11.536;2024-01-06T16:21:23;2.56;96.09
51878;SHT31;37911;51.526;11.536;2024-01-06T16:24:29;2.60;95.94
51878;SHT31;37911;51.526;11.536;2024-01-06T16:27:34;2.51;96.01
51878;SHT31;37911;51.526;11.536;2024-01-06T16:30:40;2.53;95.97
51878;SHT31;37911;51.526;11.536;2024-01-06T16:33:43;2.57;95.75
51878;SHT31;37911;51.526;11.536;2024-01-06T16:36:47;2.50;96.00
51878;SHT31;37911;51.526;11.536;2024-01-06T16:39:50;2.50;95.85
51878;SHT31;37911;51.526;11.536;2024-01-06T16:42:54;2.47;96.01
51878;SHT31;37911;51.526;11.536;2024-01-06T16:46:00;2.41;96.20
51878;SHT31;37911;51.526;11.536;2024-01-06T16:49:03;2.50;96.10
51878;SHT31;37911;51.526;11.536;2024-01-06T16:52:06;2.53;95.97
51878;SHT31;37911;51.526;11.536;2024-01-06T16:55:12;2.40;95.94
51878;SHT31;37911;51.526;11.536;2024-01-06T16:58:15;2.41;96.08
51878;SHT31;37911;51.526;11.536;2024-01-06T17:01:22;2.41;95.96
51878;SHT31;37911;51.526;11.536;2024-01-06T17:04:26;2.36;95.95
51878;SHT31;37911;51.526;11.536;2024-01-06T17:07:30;2.53;96.10
51878;SHT31;37911;51.526;11.536;2024-01-06T17:10:33;2.49;95.92
51878;SHT31;37911;51.526;11.536;2024-01-06T17:13:36;2.53;95.86
51878;SHT31;37911;51.526;11.536;2024-01-06T17:16:42;2.74;95.69
51878;SHT31;37911;51.526;11.536;2024-01-06T17:19:46;2.88;95.23
51878;SHT31;37911;51.526;11.536;2024-01-06T17:22:49;2.98;94.72
51878;SHT31;37911;51.526;11.536;2024-01-06T17:25:52;3.15;94.96
51878;SHT31;37911;51.526;11.536;2024-01-06T17:28:56;3.21;94.62
51878;SHT31;37911;51.526;11.536;2024-01-06T17:32:02;3.07;93.20
51878;SHT31;37911;51.526;11.536;2024-01-06T17:35:06;3.39;93.46
51878;SHT31;37911;51.526;11.536;2024-01-06T17:38:09;3.39;94.30
51878;SHT31;37911;51.526;11.536;2024-01-06T17:41:13;3.35;93.68
51878;SHT31;37911;51.526;11.536;2024-01-06T17:44:16;3.35;92.56
51878;SHT31;37911;51.526;11.536;2024-01-06T17:47:22;3.38;91.65
51878;SHT31;37911;51.526;11.536;2024-01-06T17:50:25;3.36;90.90
51878;SHT31;37911;51.526;11.536;2024-01-06T17:53:29;3.51;91.17
51878;SHT31;37911;51.526;11.536;2024-01-06T17:56:32;3.32;90.64
51878;SHT31;37911;51.526;11.536;2024-01-06T17:59:35;3.52;91.76
51878;SHT31;37911;51.526;11.536;2024-01-06T18:02:43;3.28;91.34
51878;SHT31;37911;51.526;11.536;2024-01-06T18:05:47;3.22;91.97
51878;SHT31;37911;51.526;11.536;2024-01-06T18:08:50;3.25;92.25
51878;SHT31;37911;51.526;11.536;2024-01-06T18:11:54;3.21;92.25
51878;SHT31;37911;51.526;11.536;2024-01-06T18:14:58;3.55;93.40
51878;SHT31;37911;51.526;11.536;2024-01-06T18:18:04;3.43;93.02
51878;SHT31;37911;51.526;11.536;2024-01-06T18:21:08;3.39;92.91
51878;SHT31;37911;51.526;11.536;2024-01-06T18:24:11;3.31;92.03
51878;SHT31;37911;51.526;11.536;2024-01-06T18:27:15;3.34;92.26
51878;SHT31;37911;51.526;11.536;2024-01-06T18:30:18;3.24;91.96
51878;SHT31;37911;51.526;11.536;2024-01-06T18:33:24;3.31;92.24
51878;SHT31;37911;51.526;11.536;2024-01-06T18:36:27;3.22;91.97
51878;SHT31;37911;51.526;11.536;2024-01-06T18:39:31;3.36;92.56
51878;SHT31;37911;51.526;11.536;2024-01-06T18:42:34;3.25;91.64
51878;SHT31;37911;51.526;11.536;2024-01-06T18:45:37;3.31;91.02
51878;SHT31;37911;51.526;11.536;2024-01-06T18:48:43;2.97;90.87
51878;SHT31;37911;51.526;11.536;2024-01-06T18:51:46;3.12;90.46
51878;SHT31;37911;51.526;11.536;2024-01-06T18:54:50;3.07;90.51
51878;SHT31;37911;51.526;11.536;2024-01-06T18:57:53;2.91;90.54
51878;SHT31;37911;51.526;11.536;2024-01-06T19:00:56;2.77;90.99
51878;SHT31;37911;51.526;11.536;2024-01-06T19:04:03;2.64;91.63
51878;SHT31;37911;51.526;11.536;2024-01-06T19:07:06;2.47;92.09
51878;SHT31;37911;51.526;11.536;2024-01-06T19:10:09;2.50;92.40
51878;SHT31;37911;51.526;11.536;2024-01-06T19:13:14;2.44;92.43
51878;SHT31;37911;51.526;11.536;2024-01-06T19:16:18;2.34;92.67
51878;SHT31;37911;51.526;11.536;2024-01-06T19:19:23;2.30;92.74
51878;SHT31;37911;51.526;11.536;2024-01-06T19:22:27;2.25;92.98